Time;durP1;ratioP1;P1;durP2;ratioP2;P2;SDS_P1;SDS_P2;PMS_P1;PMS_P2;Temp;Humidity;BMP_temperature;BMP_pressure;BME280_temperature;BME280_humidity;BME280_pressure;Samples;Min_cycle;Max_cycle;Signal;HPM_P1;HPM_P2
2021/10/12 00:00:26;;;;;;;20.13;14.00;;;9.90;99.90;;;;;;4933802;29;20491;-73
2021/10/12 00:02:52;;;;;;;27.17;15.30;;;9.90;99.90;;;;;;4915442;29;20419;-73
2021/10/12 00:05:17;;;;;;;22.50;14.60;;;9.90;99.90;;;;;;4915149;29;20031;-73
2021/10/12 00:07:44;;;;;;;25.08;17.35;;;10.00;99.90;;;;;;4915721;29;20064;-73
2021/10/12 00:10:10;;;;;;;24.50;15.93;;;10.10;99.90;;;;;;4915667;29;20043;-73
2021/10/12 00:12:36;;;;;;;23.65;16.77;;;10.00;99.90;;;;;;4915209;29;20068;-73
2021/10/12 00:15:03;;;;;;;27.88;17.42;;;10.10;99.90;;;;;;4914763;29;20024;-73
2021/10/12 00:17:28;;;;;;;28.30;16.77;;;10.20;99.90;;;;;;4915735;29;20031;-73
2021/10/12 00:19:54;;;;;;;21.83;15.57;;;10.20;99.90;;;;;;4918539;29;20036;-73
2021/10/12 00:22:20;;;;;;;23.92;17.15;;;10.10;99.90;;;;;;4919330;29;20028;-73
2021/10/12 00:24:45;;;;;;;23.95;15.40;;;10.00;99.90;;;;;;4918662;29;20107;-73
2021/10/12 00:27:11;;;;;;;21.90;15.57;;;10.00;99.90;;;;;;4919205;29;20103;-73
2021/10/12 00:29:37;;;;;;;24.08;16.00;;;10.00;99.90;;;;;;4919209;29;20043;-73
2021/10/12 00:32:03;;;;;;;23.77;15.52;;;10.10;99.90;;;;;;4917785;29;20088;-73
2021/10/12 00:34:28;;;;;;;24.58;16.55;;;10.10;99.90;;;;;;4918695;29;20047;-73
2021/10/12 00:36:54;;;;;;;23.23;15.90;;;10.10;99.90;;;;;;4919264;29;20028;-72
2021/10/12 00:39:20;;;;;;;23.23;14.57;;;10.10;99.90;;;;;;4919985;29;20490;-73
2021/10/12 00:41:45;;;;;;;24.17;15.80;;;10.10;99.90;;;;;;4918051;29;20395;-73
2021/10/12 00:44:11;;;;;;;20.95;15.52;;;10.10;99.90;;;;;;4918984;29;20036;-73
2021/10/12 00:46:37;;;;;;;28.20;15.88;;;10.10;99.90;;;;;;4918086;29;20028;-72
2021/10/12 00:49:03;;;;;;;25.63;15.77;;;10.00;99.90;;;;;;4917784;29;20065;-73
2021/10/12 00:51:29;;;;;;;21.20;14.85;;;10.00;99.90;;;;;;4918922;29;20052;-72
2021/10/12 00:53:55;;;;;;;18.73;14.73;;;9.90;99.90;;;;;;4918538;29;20032;-72
2021/10/12 00:56:22;;;;;;;21.60;14.18;;;10.00;99.90;;;;;;4917836;29;20025;-72
2021/10/12 00:58:48;;;;;;;23.33;15.40;;;9.80;99.90;;;;;;4919020;29;20115;-72
2021/10/12 01:01:14;;;;;;;22.00;15.10;;;9.90;99.90;;;;;;4918702;29;20482;-72
2021/10/12 01:03:40;;;;;;;22.15;15.48;;;10.00;99.90;;;;;;4917217;29;20066;-72
2021/10/12 01:06:06;;;;;;;27.83;17.23;;;10.10;99.90;;;;;;4916795;29;20028;-72
2021/10/12 01:08:32;;;;;;;24.02;15.85;;;10.20;99.90;;;;;;4918491;29;20107;-71
2021/10/12 01:10:58;;;;;;;24.58;16.33;;;10.20;99.90;;;;;;4918315;29;20111;-73
2021/10/12 01:13:25;;;;;;;26.38;15.90;;;10.20;99.90;;;;;;4918410;29;20024;-72
2021/10/12 01:15:51;;;;;;;23.25;16.75;;;10.10;99.90;;;;;;4918757;29;20024;-72
2021/10/12 01:18:17;;;;;;;22.70;15.77;;;10.10;99.90;;;;;;4918495;29;20032;-73
2021/10/12 01:20:43;;;;;;;26.40;17.50;;;9.90;99.90;;;;;;4918853;29;20028;-72
2021/10/12 01:23:09;;;;;;;26.58;17.00;;;9.90;99.90;;;;;;4918297;29;20032;-72
2021/10/12 01:25:35;;;;;;;26.58;16.88;;;9.80;99.90;;;;;;4917569;29;20039;-72
2021/10/12 01:28:01;;;;;;;27.40;18.50;;;9.80;99.90;;;;;;4918268;29;20036;-72
2021/10/12 01:30:27;;;;;;;28.20;17.95;;;9.70;99.90;;;;;;4917715;29;20483;-72
2021/10/12 01:32:53;;;;;;;25.85;17.38;;;9.50;99.90;;;;;;4916669;29;20039;-72
2021/10/12 01:35:18;;;;;;;29.42;17.58;;;9.50;99.90;;;;;;4916062;29;20024;-72
2021/10/12 01:37:44;;;;;;;27.45;18.63;;;9.40;99.90;;;;;;4917935;29;20554;-72
2021/10/12 01:40:12;;;;;;;24.90;17.15;;;9.10;99.90;;;;;;4917699;29;20115;-72
2021/10/12 01:42:38;;;;;;;30.73;18.92;;;9.10;99.90;;;;;;4917701;29;20048;-72
2021/10/12 01:45:08;;;;;;;27.77;18.40;;;9.10;99.90;;;;;;4917306;29;20032;-72
2021/10/12 01:47:34;;;;;;;32.17;18.75;;;9.20;99.90;;;;;;4917684;29;20032;-72
2021/10/12 01:49:59;;;;;;;32.80;20.48;;;9.20;99.90;;;;;;4917284;29;20034;-72
2021/10/12 01:52:25;;;;;;;32.53;19.73;;;9.10;99.90;;;;;;4917406;29;20024;-72
2021/10/12 01:54:51;;;;;;;31.08;19.25;;;9.10;99.90;;;;;;4917038;29;20032;-72
2021/10/12 01:57:19;;;;;;;28.40;18.65;;;9.00;99.90;;;;;;4917692;29;20387;-72
2021/10/12 01:59:46;;;;;;;34.28;20.40;;;8.90;99.90;;;;;;4916266;29;20028;-72
2021/10/12 02:02:12;;;;;;;32.20;20.00;;;8.90;99.90;;;;;;4917241;29;20046;-72
2021/10/12 02:04:37;;;;;;;32.05;20.10;;;8.90;99.90;;;;;;4916803;29;20513;-72
2021/10/12 02:07:03;;;;;;;35.30;20.08;;;8.80;99.90;;;;;;4917673;29;20036;-72
2021/10/12 02:09:30;;;;;;;40.67;22.02;;;8.70;99.90;;;;;;4917299;29;20024;-72
2021/10/12 02:11:56;;;;;;;38.03;22.05;;;8.70;99.90;;;;;;4932055;29;20079;-72
2021/10/12 02:14:22;;;;;;;35.90;21.25;;;8.60;99.90;;;;;;4917095;29;20036;-72
2021/10/12 02:16:48;;;;;;;37.70;21.38;;;8.50;99.90;;;;;;4916314;29;20033;-72
2021/10/12 02:19:13;;;;;;;33.00;20.13;;;8.40;99.90;;;;;;4917117;29;20118;-72
2021/10/12 02:21:39;;;;;;;30.23;18.42;;;8.30;99.90;;;;;;4917288;29;20162;-72
2021/10/12 02:24:05;;;;;;;35.60;18.50;;;8.20;99.90;;;;;;4917263;29;20032;-72
2021/10/12 02:26:30;;;;;;;33.10;18.25;;;8.20;99.90;;;;;;4916742;29;20024;-73
2021/10/12 02:28:56;;;;;;;28.58;17.98;;;8.10;99.90;;;;;;4917218;29;20095;-73
2021/10/12 02:31:22;;;;;;;28.95;17.35;;;8.10;99.90;;;;;;4917021;29;20082;-72
2021/10/12 02:33:48;;;;;;;33.47;19.88;;;8.00;99.90;;;;;;4917034;29;20028;-71
2021/10/12 02:36:13;;;;;;;36.55;20.95;;;8.10;99.90;;;;;;4916271;29;20040;-71
2021/10/12 02:38:40;;;;;;;34.75;20.70;;;8.20;99.90;;;;;;4915469;29;20043;-72
2021/10/12 02:41:06;;;;;;;34.55;21.00;;;8.20;99.90;;;;;;4916002;29;20048;-71
2021/10/12 02:43:32;;;;;;;35.83;22.00;;;8.10;99.90;;;;;;4916876;29;20175;-71
2021/10/12 02:45:58;;;;;;;42.60;23.15;;;8.20;99.90;;;;;;4916799;29;20111;-72
2021/10/12 02:48:23;;;;;;;33.92;19.83;;;8.20;99.90;;;;;;4916082;29;20526;-73
2021/10/12 02:50:49;;;;;;;37.72;20.63;;;8.20;99.90;;;;;;4916676;29;20017;-73
2021/10/12 02:53:15;;;;;;;30.95;18.13;;;8.10;99.90;;;;;;4915733;29;20032;-73
2021/10/12 02:55:41;;;;;;;32.33;18.42;;;8.10;99.90;;;;;;4916372;29;20039;-72
2021/10/12 02:58:06;;;;;;;29.08;18.27;;;8.10;99.90;;;;;;4916490;29;20036;-71
2021/10/12 03:00:32;;;;;;;33.72;18.20;;;8.00;99.90;;;;;;4916804;29;20036;-72
2021/10/12 03:02:58;;;;;;;30.33;17.98;;;8.10;99.90;;;;;;4916570;29;20543;-71
2021/10/12 03:05:24;;;;;;;29.20;17.17;;;8.10;99.90;;;;;;4915987;29;20044;-73
2021/10/12 03:07:50;;;;;;;27.52;15.52;;;8.10;99.90;;;;;;4914412;29;20036;-72
2021/10/12 03:10:15;;;;;;;23.38;15.05;;;7.90;99.90;;;;;;4916634;29;20024;-73
2021/10/12 03:12:41;;;;;;;26.45;16.30;;;7.90;99.90;;;;;;4916118;29;20034;-73
2021/10/12 03:15:07;;;;;;;23.55;15.48;;;7.90;99.90;;;;;;4919090;29;20352;-72
2021/10/12 03:17:33;;;;;;;27.70;16.15;;;8.00;99.90;;;;;;4933941;29;20040;-73
2021/10/12 03:19:59;;;;;;;26.83;17.15;;;8.10;99.90;;;;;;4916900;29;20028;-72
2021/10/12 03:22:25;;;;;;;32.17;17.23;;;8.20;99.90;;;;;;4916833;29;20036;-72
2021/10/12 03:24:50;;;;;;;22.88;16.08;;;8.20;99.90;;;;;;4915572;29;20383;-73
2021/10/12 03:27:16;;;;;;;25.38;16.80;;;8.10;99.90;;;;;;4915937;29;20020;-72
2021/10/12 03:29:42;;;;;;;30.15;17.98;;;8.00;99.90;;;;;;4916068;29;20432;-73
2021/10/12 03:32:08;;;;;;;26.00;17.60;;;8.10;99.90;;;;;;4915153;29;20020;-73
2021/10/12 03:34:35;;;;;;;26.05;16.73;;;8.20;99.90;;;;;;4915931;29;20040;-73
2021/10/12 03:37:01;;;;;;;28.50;17.65;;;8.20;99.90;;;;;;4916206;29;20024;-73
2021/10/12 03:39:27;;;;;;;32.78;19.83;;;8.30;99.90;;;;;;4915991;29;20036;-73
2021/10/12 03:41:53;;;;;;;36.10;20.17;;;8.40;99.90;;;;;;4915860;29;20083;-73
2021/10/12 03:44:20;;;;;;;28.33;18.13;;;8.40;99.90;;;;;;4914740;29;20032;-73
2021/10/12 03:46:46;;;;;;;31.08;20.05;;;8.30;99.90;;;;;;4915544;29;20111;-72
2021/10/12 03:49:12;;;;;;;36.67;20.58;;;8.30;99.90;;;;;;4915779;29;20115;-72
2021/10/12 03:51:38;;;;;;;29.00;18.67;;;8.40;99.90;;;;;;4915115;29;20028;-72
2021/10/12 03:54:03;;;;;;;30.60;17.25;;;8.30;99.90;;;;;;4916001;29;20047;-73
2021/10/12 03:56:29;;;;;;;27.17;19.08;;;8.30;99.90;;;;;;4914172;29;20028;-72
2021/10/12 03:58:55;;;;;;;28.30;17.20;;;8.30;99.90;;;;;;4914384;29;20038;-73
2021/10/12 04:01:21;;;;;;;27.75;17.63;;;8.30;99.90;;;;;;4915744;29;20080;-72
2021/10/12 04:03:48;;;;;;;29.15;18.70;;;8.30;99.90;;;;;;4915563;29;20083;-73
2021/10/12 04:06:15;;;;;;;25.80;17.90;;;8.30;99.90;;;;;;4913731;29;20040;-73
2021/10/12 04:08:42;;;;;;;33.08;18.63;;;8.30;99.90;;;;;;4915655;29;20039;-73
2021/10/12 04:11:08;;;;;;;25.42;17.10;;;8.20;99.90;;;;;;4914682;29;20066;-72
2021/10/12 04:13:33;;;;;;;26.38;17.83;;;8.20;99.90;;;;;;4915833;29;20053;-72
2021/10/12 04:15:59;;;;;;;24.33;16.65;;;8.30;99.90;;;;;;4913819;29;20047;-73
2021/10/12 04:18:25;;;;;;;31.15;19.65;;;8.40;99.90;;;;;;4915643;29;20036;-72
2021/10/12 04:20:51;;;;;;;35.00;20.02;;;8.50;99.90;;;;;;4915872;29;20479;-74
2021/10/12 04:23:17;;;;;;;33.47;20.48;;;8.50;99.90;;;;;;4915474;29;20039;-73
2021/10/12 04:25:42;;;;;;;31.88;20.17;;;8.60;99.90;;;;;;4915075;29;20043;-73
2021/10/12 04:28:12;;;;;;;36.08;20.63;;;8.60;99.90;;;;;;4915374;29;20028;-73
2021/10/12 04:30:43;;;;;;;32.45;20.50;;;8.70;99.90;;;;;;4915562;29;20025;-73
2021/10/12 04:33:08;;;;;;;35.90;20.30;;;8.60;99.90;;;;;;4915089;29;20026;-73
2021/10/12 04:35:35;;;;;;;26.58;16.83;;;8.60;99.90;;;;;;4914858;29;20104;-72
2021/10/12 04:38:01;;;;;;;27.13;16.42;;;8.50;99.90;;;;;;4915438;29;20414;-73
2021/10/12 04:40:29;;;;;;;31.23;18.10;;;8.40;99.90;;;;;;4915343;29;20554;-73
2021/10/12 04:43:01;;;;;;;27.10;17.00;;;8.40;99.90;;;;;;4908525;29;20212;-77
2021/10/12 04:45:26;;;;;;;27.17;16.93;;;8.40;99.90;;;;;;4904828;29;20394;-79
2021/10/12 04:47:52;;;;;;;26.95;17.90;;;8.40;99.90;;;;;;4913620;29;20024;-79
2021/10/12 04:50:18;;;;;;;28.17;17.15;;;8.40;99.90;;;;;;4913552;29;20024;-80
2021/10/12 04:52:45;;;;;;;25.90;17.85;;;8.40;99.90;;;;;;4914335;29;20115;-78
2021/10/12 04:55:11;;;;;;;28.30;18.73;;;8.40;99.90;;;;;;4915621;29;20020;-77
2021/10/12 04:57:37;;;;;;;29.58;19.50;;;8.40;99.90;;;;;;4917524;29;20454;-78
2021/10/12 05:00:04;;;;;;;30.60;19.20;;;8.40;99.90;;;;;;4915425;29;20056;-80
2021/10/12 05:02:30;;;;;;;32.55;18.73;;;8.40;99.90;;;;;;4914216;29;20493;-77
2021/10/12 05:04:56;;;;;;;28.05;17.80;;;8.30;99.90;;;;;;4915298;29;20038;-78
2021/10/12 05:07:21;;;;;;;31.42;18.70;;;8.40;99.90;;;;;;4918531;29;20402;-77
2021/10/12 05:09:47;;;;;;;31.15;18.65;;;8.30;99.90;;;;;;4918710;29;20043;-77
2021/10/12 05:12:13;;;;;;;29.58;19.05;;;8.30;99.90;;;;;;4917256;29;20054;-79
2021/10/12 05:14:38;;;;;;;28.90;18.85;;;8.40;99.90;;;;;;4917304;29;20056;-74
2021/10/12 05:17:12;;;;;;;32.13;20.60;;;8.50;99.90;;;;;;4918563;29;20025;-77
2021/10/12 05:19:38;;;;;;;34.72;20.55;;;8.60;99.90;;;;;;4918036;29;20039;-76
2021/10/12 05:22:04;;;;;;;32.97;20.35;;;8.70;99.90;;;;;;4917292;29;20384;-76
2021/10/12 05:24:29;;;;;;;38.83;22.08;;;8.80;99.90;;;;;;4917023;29;20051;-76
2021/10/12 05:26:55;;;;;;;37.38;20.73;;;8.90;99.90;;;;;;4918255;29;20043;-76
2021/10/12 05:29:22;;;;;;;34.63;20.42;;;8.90;99.90;;;;;;4917949;29;20031;-76
2021/10/12 05:31:47;;;;;;;32.70;19.95;;;9.10;99.90;;;;;;4916418;29;20852;-77
2021/10/12 05:34:13;;;;;;;31.42;19.05;;;9.10;99.90;;;;;;4917911;29;20027;-77
2021/10/12 05:36:39;;;;;;;28.20;18.55;;;9.20;99.90;;;;;;4917437;29;20099;-77
2021/10/12 05:39:05;;;;;;;25.88;16.30;;;9.00;99.90;;;;;;4917711;29;20055;-77
2021/10/12 05:41:30;;;;;;;24.08;16.88;;;8.70;99.90;;;;;;4917955;29;20028;-76
2021/10/12 05:43:56;;;;;;;26.48;17.40;;;8.70;99.90;;;;;;4916798;29;20058;-79
2021/10/12 05:46:22;;;;;;;30.50;18.67;;;8.70;99.90;;;;;;4917027;29;20020;-78
2021/10/12 05:48:47;;;;;;;30.63;17.58;;;8.70;99.90;;;;;;4917547;29;20497;-77
2021/10/12 05:51:17;;;;;;;29.48;20.13;;;8.70;99.90;;;;;;4918034;29;20032;-77
2021/10/12 05:53:53;;;;;;;25.55;17.45;;;8.80;99.90;;;;;;4917718;29;20111;-76
2021/10/12 05:58:49;;;;;;;27.58;19.17;;;8.50;99.90;;;;;;4924942;29;20092;-77
2021/10/12 06:01:17;;;;;;;29.10;17.27;;;8.30;99.90;;;;;;4918692;29;20160;-77
2021/10/12 06:03:43;;;;;;;25.50;16.95;;;8.30;99.90;;;;;;4917851;29;20032;-77
2021/10/12 06:06:11;;;;;;;27.73;18.48;;;8.30;99.90;;;;;;4914713;29;20055;-77
2021/10/12 06:08:37;;;;;;;26.40;18.08;;;8.40;99.90;;;;;;4917735;29;20024;-77
2021/10/12 06:11:04;;;;;;;24.17;16.92;;;8.40;99.90;;;;;;4917382;29;20035;-77
2021/10/12 06:13:31;;;;;;;26.35;18.33;;;8.40;99.90;;;;;;4917385;29;20561;-77
2021/10/12 06:15:57;;;;;;;31.33;19.63;;;8.40;99.90;;;;;;4910173;29;20028;-78
2021/10/12 06:18:24;;;;;;;31.35;18.58;;;8.30;99.90;;;;;;4900026;29;20056;-76
2021/10/12 06:20:50;;;;;;;30.52;18.92;;;8.40;99.90;;;;;;4898479;29;20503;-74
2021/10/12 06:23:17;;;;;;;28.33;18.92;;;8.40;99.90;;;;;;4898065;29;20475;-72
2021/10/12 06:25:43;;;;;;;33.15;19.92;;;8.50;99.90;;;;;;4903086;29;20391;-78
2021/10/12 06:28:11;;;;;;;28.67;19.73;;;8.50;99.90;;;;;;4916982;29;20217;-78
2021/10/12 06:30:37;;;;;;;33.95;20.38;;;8.50;99.90;;;;;;4922536;29;20426;-71
2021/10/12 06:33:03;;;;;;;29.77;18.23;;;8.50;99.90;;;;;;4919111;29;20035;-70
2021/10/12 06:35:30;;;;;;;32.47;19.73;;;8.40;99.90;;;;;;4917864;29;20016;-72
2021/10/12 06:37:57;;;;;;;33.47;19.60;;;8.40;99.90;;;;;;4917679;29;20028;-73
2021/10/12 06:40:23;;;;;;;31.02;18.98;;;8.30;99.90;;;;;;4917434;29;20023;-72
2021/10/12 06:42:49;;;;;;;25.38;18.67;;;8.40;99.90;;;;;;4917681;29;20055;-73
2021/10/12 06:45:16;;;;;;;29.55;18.00;;;8.40;99.90;;;;;;4915994;29;20549;-73
2021/10/12 06:47:43;;;;;;;37.55;19.85;;;8.40;99.90;;;;;;4917677;29;20024;-73
2021/10/12 06:50:09;;;;;;;35.78;22.02;;;8.50;99.90;;;;;;4917636;29;20513;-73
2021/10/12 06:52:35;;;;;;;29.30;19.58;;;8.70;99.90;;;;;;4934123;29;20039;-72
2021/10/12 06:55:01;;;;;;;36.30;20.77;;;8.50;99.90;;;;;;4937500;29;20036;-74
2021/10/12 06:57:26;;;;;;;37.40;21.15;;;8.70;99.90;;;;;;4926280;29;20076;-73
2021/10/12 06:59:52;;;;;;;39.92;22.90;;;8.90;99.90;;;;;;4917144;29;20032;-73
2021/10/12 07:02:18;;;;;;;38.70;22.63;;;9.00;99.90;;;;;;4916561;29;20024;-74
2021/10/12 07:04:45;;;;;;;39.38;23.25;;;9.10;99.90;;;;;;4916511;29;20028;-73
2021/10/12 07:07:10;;;;;;;53.15;26.83;;;9.20;99.90;;;;;;4916673;29;20028;-73
2021/10/12 07:09:36;;;;;;;50.97;25.77;;;9.30;99.90;;;;;;4916407;29;20039;-73
2021/10/12 07:12:02;;;;;;;44.13;25.77;;;9.30;99.90;;;;;;4916775;29;20027;-72
2021/10/12 07:14:28;;;;;;;46.00;26.10;;;9.30;99.90;;;;;;4916626;29;20091;-73
2021/10/12 07:16:54;;;;;;;46.10;25.35;;;9.30;99.90;;;;;;4916403;29;20021;-74
2021/10/12 07:19:19;;;;;;;39.10;23.48;;;9.40;99.90;;;;;;4916339;29;20106;-72
2021/10/12 07:21:46;;;;;;;34.65;21.73;;;9.30;99.90;;;;;;4916340;29;20035;-72
2021/10/12 07:24:12;;;;;;;43.88;23.75;;;9.30;99.90;;;;;;4915286;29;20031;-73
2021/10/12 07:26:38;;;;;;;36.40;21.98;;;9.20;99.90;;;;;;4915868;29;20055;-72
2021/10/12 07:29:04;;;;;;;33.78;19.63;;;9.30;99.90;;;;;;4915699;29;20115;-73
2021/10/12 07:31:30;;;;;;;30.92;19.27;;;9.20;99.90;;;;;;4915778;29;20452;-72
2021/10/12 07:33:55;;;;;;;39.08;21.05;;;9.10;99.90;;;;;;4915997;29;20092;-74
2021/10/12 07:36:21;;;;;;;36.72;19.35;;;9.10;99.90;;;;;;4915186;29;20021;-72
2021/10/12 07:38:47;;;;;;;32.88;17.58;;;8.90;99.90;;;;;;4915991;29;20039;-71
2021/10/12 07:41:12;;;;;;;29.83;18.50;;;8.90;99.90;;;;;;4916116;29;20024;-73
2021/10/12 07:43:38;;;;;;;32.53;21.08;;;8.80;99.90;;;;;;4915887;29;20116;-72
2021/10/12 07:46:05;;;;;;;36.33;20.80;;;8.90;99.90;;;;;;4914746;29;20059;-73
2021/10/12 07:48:31;;;;;;;42.65;23.75;;;9.00;99.90;;;;;;4915327;29;20032;-73
2021/10/12 07:50:57;;;;;;;39.33;21.40;;;9.20;99.90;;;;;;4915532;29;20459;-73
2021/10/12 07:53:23;;;;;;;33.78;21.05;;;9.10;99.90;;;;;;4915806;29;20075;-72
2021/10/12 07:55:52;;;;;;;35.40;20.55;;;9.10;99.90;;;;;;4915123;29;20107;-73
2021/10/12 07:58:18;;;;;;;34.53;21.13;;;9.20;99.90;;;;;;4916034;29;20020;-73
2021/10/12 08:00:44;;;;;;;27.08;17.83;;;9.10;99.90;;;;;;4915921;29;20379;-71
2021/10/12 08:03:10;;;;;;;28.30;17.58;;;9.00;99.90;;;;;;4915447;29;20463;-71
2021/10/12 08:05:37;;;;;;;32.28;18.50;;;9.00;99.90;;;;;;4915577;29;20088;-71
2021/10/12 08:08:03;;;;;;;28.75;18.00;;;9.10;99.90;;;;;;4917665;29;20029;-71
2021/10/12 08:10:28;;;;;;;26.60;18.10;;;9.10;99.90;;;;;;4915703;29;20032;-73
2021/10/12 08:12:57;;;;;;;27.75;17.52;;;9.10;99.90;;;;;;4916318;29;20040;-71
2021/10/12 08:15:23;;;;;;;29.48;17.50;;;9.10;99.90;;;;;;4915467;29;20021;-72
2021/10/12 08:17:49;;;;;;;28.25;16.83;;;8.90;99.90;;;;;;4915891;29;20493;-72
2021/10/12 08:20:15;;;;;;;30.67;17.88;;;8.90;99.90;;;;;;4919308;29;20036;-71
2021/10/12 08:22:42;;;;;;;26.75;16.27;;;9.00;99.90;;;;;;4921205;29;20554;-72
2021/10/12 08:25:08;;;;;;;28.38;18.75;;;9.00;99.90;;;;;;4917040;29;20119;-71
2021/10/12 08:27:38;;;;;;;26.13;16.92;;;9.20;99.90;;;;;;4915762;29;20021;-71
2021/10/12 08:30:06;;;;;;;28.33;19.05;;;9.30;99.90;;;;;;4915365;29;20025;-74
2021/10/12 08:32:32;;;;;;;27.50;18.65;;;9.50;99.90;;;;;;4915626;29;20399;-73
2021/10/12 08:34:57;;;;;;;30.80;18.35;;;9.50;99.90;;;;;;4915331;29;20032;-72
2021/10/12 08:37:23;;;;;;;29.05;18.88;;;9.40;99.90;;;;;;4915632;29;20030;-72
2021/10/12 08:39:49;;;;;;;24.23;17.30;;;9.40;99.90;;;;;;4916158;29;20074;-73
2021/10/12 08:42:20;;;;;;;35.22;17.73;;;9.50;99.90;;;;;;4918927;29;20036;-71
2021/10/12 08:45:02;;;;;;;26.07;17.67;;;9.50;99.90;;;;;;4919173;29;20036;-72
2021/10/12 08:47:30;;;;;;;28.17;18.63;;;9.50;99.90;;;;;;4917933;29;20304;-72
2021/10/12 08:49:56;;;;;;;37.22;18.55;;;9.40;99.90;;;;;;4919259;29;20067;-71
2021/10/12 08:52:22;;;;;;;26.73;18.60;;;9.40;99.90;;;;;;4919120;29;20483;-73
2021/10/12 08:54:49;;;;;;;31.17;19.60;;;9.40;99.90;;;;;;4918213;29;20076;-73
2021/10/12 08:57:39;;;;;;;27.95;18.45;;;9.60;99.90;;;;;;4933714;29;20442;-74
2021/10/12 09:00:10;;;;;;;27.60;17.52;;;9.40;99.90;;;;;;4918556;29;20036;-72
2021/10/12 09:06:03;;;;;;;34.67;20.10;;;9.10;99.90;;;;;;4918286;29;20067;-73
2021/10/12 09:08:40;;;;;;;30.23;19.27;;;9.40;99.90;;;;;;4918694;29;20031;-71
2021/10/12 09:11:19;;;;;;;28.75;18.17;;;9.50;99.90;;;;;;4919159;29;20035;-72
2021/10/12 09:13:50;;;;;;;28.55;17.98;;;9.50;99.90;;;;;;4918718;29;20103;-71
2021/10/12 09:16:17;;;;;;;32.17;18.05;;;9.30;99.90;;;;;;4918295;29;20079;-72
2021/10/12 09:18:59;;;;;;;30.60;18.08;;;9.50;99.90;;;;;;4918325;29;20032;-73
2021/10/12 09:21:29;;;;;;;28.33;19.00;;;9.90;99.90;;;;;;4918812;29;20040;-73
2021/10/12 09:24:10;;;;;;;23.40;15.35;;;10.40;99.90;;;;;;4918700;29;20494;-73
2021/10/12 09:26:44;;;;;;;24.33;15.25;;;10.60;99.90;;;;;;4917629;29;20032;-73
2021/10/12 09:29:23;;;;;;;21.38;13.52;;;10.50;99.90;;;;;;4918092;29;20124;-72
2021/10/12 09:31:49;;;;;;;23.38;14.18;;;10.50;99.90;;;;;;4918476;29;20028;-72
2021/10/12 09:34:18;;;;;;;21.00;13.52;;;10.40;99.90;;;;;;4917934;29;20076;-75
2021/10/12 09:36:49;;;;;;;24.67;13.65;;;10.20;99.90;;;;;;4918840;29;20056;-73
2021/10/12 09:39:33;;;;;;;19.73;12.98;;;10.30;99.90;;;;;;4916671;29;20036;-74
2021/10/12 09:42:10;;;;;;;23.60;13.43;;;10.60;99.90;;;;;;4917149;29;20038;-72
2021/10/12 09:44:37;;;;;;;23.40;14.57;;;10.40;99.90;;;;;;4917608;29;20435;-72
2021/10/12 09:47:14;;;;;;;31.98;16.02;;;10.30;99.90;;;;;;4926104;29;20036;-73
2021/10/12 09:49:43;;;;;;;20.98;13.27;;;10.40;99.90;;;;;;4917753;29;20039;-74
2021/10/12 09:52:16;;;;;;;25.40;14.85;;;10.20;99.90;;;;;;4917766;29;20387;-73
2021/10/12 09:54:52;;;;;;;37.10;16.85;;;10.20;99.90;;;;;;4916136;29;20028;-73
2021/10/12 09:57:22;;;;;;;23.67;15.15;;;10.40;99.90;;;;;;4918127;29;20024;-73
2021/10/12 09:59:49;;;;;;;21.80;13.68;;;10.30;99.90;;;;;;4918447;29;20024;-73
2021/10/12 10:02:17;;;;;;;21.13;13.93;;;10.20;99.90;;;;;;4917604;29;20046;-73
2021/10/12 10:04:44;;;;;;;23.48;14.57;;;10.40;99.90;;;;;;4916852;29;20717;-73
2021/10/12 10:07:34;;;;;;;26.15;14.50;;;10.50;99.90;;;;;;4916546;29;20511;-72
2021/10/12 10:10:04;;;;;;;24.75;13.50;;;10.50;99.90;;;;;;4917428;29;20039;-74
2021/10/12 10:12:31;;;;;;;20.52;14.25;;;10.70;99.90;;;;;;4917514;29;20020;-73
2021/10/12 10:14:57;;;;;;;22.27;14.52;;;10.80;99.90;;;;;;4917330;29;20478;-73
2021/10/12 10:17:23;;;;;;;22.80;13.55;;;11.00;99.90;;;;;;4916500;29;20036;-71
2021/10/12 10:19:49;;;;;;;20.92;13.68;;;11.40;99.90;;;;;;4917454;29;20599;-70
2021/10/12 10:22:41;;;;;;;21.70;13.73;;;11.00;99.90;;;;;;4916248;29;20091;-72
2021/10/12 10:25:38;;;;;;;20.30;15.00;;;11.00;99.90;;;;;;4916564;29;20034;-72
2021/10/12 10:28:16;;;;;;;29.45;16.15;;;10.80;99.90;;;;;;4917748;29;20391;-72
2021/10/12 10:30:53;;;;;;;27.58;17.08;;;10.80;99.90;;;;;;4916108;29;20107;-73
2021/10/12 10:33:35;;;;;;;18.58;14.57;;;11.10;99.90;;;;;;4939510;29;20012;-72
2021/10/12 10:36:07;;;;;;;24.98;16.20;;;11.00;99.90;;;;;;4916012;29;20030;-71
2021/10/12 10:38:36;;;;;;;30.60;16.45;;;10.80;99.90;;;;;;4917300;29;20394;-71
2021/10/12 10:41:04;;;;;;;27.88;16.63;;;10.70;99.90;;;;;;4917406;29;20043;-71
2021/10/12 10:43:48;;;;;;;25.40;15.98;;;10.70;99.90;;;;;;4916990;29;20059;-71
2021/10/12 10:46:35;;;;;;;24.58;15.80;;;10.70;99.90;;;;;;4914636;29;20055;-71
2021/10/12 10:49:10;;;;;;;27.08;16.58;;;10.60;99.90;;;;;;4914075;29;20055;-72
2021/10/12 10:51:46;;;;;;;24.70;15.50;;;10.70;99.90;;;;;;4916807;29;20024;-71
2021/10/12 10:54:43;;;;;;;30.38;17.35;;;10.70;99.90;;;;;;4916595;29;20024;-71
2021/10/12 10:57:08;;;;;;;26.20;16.40;;;10.80;99.90;;;;;;4916317;29;20562;-72
2021/10/12 10:59:34;;;;;;;27.98;17.13;;;10.80;99.90;;;;;;4916478;29;20083;-71
2021/10/12 11:01:59;;;;;;;21.75;16.35;;;10.70;99.90;;;;;;4915864;29;20119;-71
2021/10/12 11:04:42;;;;;;;20.17;12.45;;;11.00;99.90;;;;;;4915308;29;20028;-71
2021/10/12 11:07:07;;;;;;;;;;;10.80;99.90;;;;;;4916863;29;20379;-71
2021/10/12 11:09:43;;;;;;;15.85;10.73;;;10.70;99.90;;;;;;4916161;29;19911;-72
2021/10/12 11:12:19;;;;;;;18.13;11.60;;;10.50;99.90;;;;;;4916157;29;20439;-72
2021/10/12 11:14:45;;;;;;;22.00;12.95;;;10.70;99.90;;;;;;4914197;29;20431;-72
2021/10/12 11:17:11;;;;;;;32.50;21.88;;;10.90;99.90;;;;;;4915773;29;20024;-72
2021/10/12 11:19:55;;;;;;;23.25;11.02;;;10.90;99.90;;;;;;4916326;29;20027;-71
2021/10/12 11:22:21;;;;;;;16.45;11.35;;;10.60;99.90;;;;;;4916272;29;20028;-71
2021/10/12 11:24:50;;;;;;;36.67;23.20;;;10.70;99.90;;;;;;4915233;29;20043;-72
2021/10/12 11:27:16;;;;;;;29.05;20.17;;;10.80;99.90;;;;;;4916257;29;20439;-71
2021/10/12 11:29:43;;;;;;;27.95;18.92;;;11.00;99.90;;;;;;4915813;29;20032;-71
2021/10/12 11:32:08;;;;;;;19.27;10.38;;;11.20;99.90;;;;;;4915374;29;20028;-71
2021/10/12 11:34:34;;;;;;;14.98;10.73;;;11.20;99.90;;;;;;4914034;29;20538;-72
2021/10/12 11:37:10;;;;;;;15.43;9.18;;;11.50;99.90;;;;;;4915949;29;20016;-71
2021/10/12 11:39:36;;;;;;;15.27;11.10;;;11.80;99.90;;;;;;4915859;29;20024;-71
2021/10/12 11:42:03;;;;;;;19.10;10.68;;;12.00;99.90;;;;;;4917255;29;20176;-73
2021/10/12 11:44:30;;;;;;;15.90;9.25;;;12.10;99.90;;;;;;4903393;29;20054;-71
2021/10/12 11:47:04;;;;;;;28.88;16.60;;;12.60;99.90;;;;;;4910427;29;20115;-71
2021/10/12 11:49:34;;;;;;;17.00;8.88;;;13.30;99.90;;;;;;4915368;29;20040;-72
2021/10/12 11:52:08;;;;;;;9.88;6.53;;;12.90;99.90;;;;;;4915537;29;20020;-72
2021/10/12 11:54:34;;;;;;;7.80;5.70;;;12.40;99.90;;;;;;4914984;29;20043;-72
2021/10/12 11:57:02;;;;;;;12.68;6.82;;;12.70;99.90;;;;;;4915454;29;20055;-72
2021/10/12 11:59:35;;;;;;;9.68;5.63;;;12.80;99.90;;;;;;4915481;29;20023;-71
2021/10/12 12:02:05;;;;;;;8.50;6.10;;;12.50;99.90;;;;;;4915880;29;20039;-72
2021/10/12 12:04:33;;;;;;;9.45;5.93;;;12.40;99.90;;;;;;4915274;29;20051;-71
2021/10/12 12:07:06;;;;;;;9.82;6.88;;;12.00;99.90;;;;;;4915805;29;20072;-71
2021/10/12 12:09:32;;;;;;;14.23;7.07;;;11.60;99.90;;;;;;4915591;29;20032;-71
2021/10/12 12:12:01;;;;;;;9.38;6.57;;;11.30;99.90;;;;;;4915337;29;20439;-71
2021/10/12 12:14:27;;;;;;;11.38;7.07;;;11.10;99.90;;;;;;4916780;29;20032;-71
2021/10/12 12:17:09;;;;;;;10.65;7.78;;;11.10;99.90;;;;;;4919399;29;20024;-72
2021/10/12 12:19:43;;;;;;;12.27;8.02;;;10.80;99.90;;;;;;4920000;29;20031;-72
2021/10/12 12:22:18;;;;;;;12.93;8.50;;;11.00;99.90;;;;;;4919501;29;20036;-72
2021/10/12 12:25:00;;;;;;;13.90;8.70;;;10.90;99.90;;;;;;4918676;29;20163;-72
2021/10/12 12:27:33;;;;;;;10.93;7.90;;;11.10;99.90;;;;;;4919709;29;20034;-72
2021/10/12 12:30:04;;;;;;;13.80;8.02;;;11.20;99.90;;;;;;4911541;29;20466;-81
2021/10/12 12:32:30;;;;;;;13.67;7.50;;;11.20;99.90;;;;;;4921928;29;20024;-81
2021/10/12 12:34:58;;;;;;;11.52;7.80;;;11.30;99.90;;;;;;4920936;29;20083;-79
2021/10/12 12:37:27;;;;;;;19.17;10.13;;;11.50;99.90;;;;;;4921592;29;20024;-81
2021/10/12 12:39:53;;;;;;;16.30;10.18;;;11.50;99.90;;;;;;4923129;29;20111;-80
2021/10/12 12:42:33;;;;;;;11.65;8.65;;;11.60;99.90;;;;;;4921079;29;20055;-78
2021/10/12 12:45:09;;;;;;;16.10;8.75;;;11.60;99.90;;;;;;4936180;29;20035;-81